sensor_id;sensor_type;location;lat;lon;timestamp;P1;durP1;ratioP1;P2;durP2;ratioP2
68921;SDS011;55959;51.244;5.724;2023-05-07T00:00:37;4.33;;;3.93;;
68921;SDS011;55959;51.244;5.724;2023-05-07T00:03:03;4.70;;;4.30;;
68921;SDS011;55959;51.244;5.724;2023-05-07T00:05:31;4.27;;;3.90;;
68921;SDS011;55959;51.244;5.724;2023-05-07T00:07:57;4.50;;;4.10;;
68921;SDS011;55959;51.244;5.724;2023-05-07T00:10:23;4.15;;;3.75;;
68921;SDS011;55959;51.244;5.724;2023-05-07T00:12:48;4.30;;;3.90;;
68921;SDS011;55959;51.244;5.724;2023-05-07T00:15:14;4.80;;;4.50;;
68921;SDS011;55959;51.244;5.724;2023-05-07T00:17:40;4.90;;;4.50;;
68921;SDS011;55959;51.244;5.724;2023-05-07T00:20:06;5.10;;;4.60;;
68921;SDS011;55959;51.244;5.724;2023-05-07T00:22:32;4.90;;;4.50;;
68921;SDS011;55959;51.244;5.724;2023-05-07T00:24:58;4.37;;;4.07;;
68921;SDS011;55959;51.244;5.724;2023-05-07T00:27:25;4.90;;;4.50;;
68921;SDS011;55959;51.244;5.724;2023-05-07T00:29:50;5.03;;;4.63;;
68921;SDS011;55959;51.244;5.724;2023-05-07T00:32:16;5.13;;;4.63;;
68921;SDS011;55959;51.244;5.724;2023-05-07T00:34:42;4.67;;;4.27;;
68921;SDS011;55959;51.244;5.724;2023-05-07T00:37:09;4.57;;;4.17;;
68921;SDS011;55959;51.244;5.724;2023-05-07T00:39:35;5.67;;;5.17;;
68921;SDS011;55959;51.244;5.724;2023-05-07T00:42:01;5.00;;;4.60;;
68921;SDS011;55959;51.244;5.724;2023-05-07T00:44:28;5.20;;;4.70;;
68921;SDS011;55959;51.244;5.724;2023-05-07T00:46:54;5.67;;;4.83;;
68921;SDS011;55959;51.244;5.724;2023-05-07T00:49:22;4.80;;;4.40;;
68921;SDS011;55959;51.244;5.724;2023-05-07T00:51:59;5.32;;;4.93;;
68921;SDS011;55959;51.244;5.724;2023-05-07T00:54:25;5.83;;;5.27;;
68921;SDS011;55959;51.244;5.724;2023-05-07T00:56:51;6.53;;;5.93;;
68921;SDS011;55959;51.244;5.724;2023-05-07T00:59:17;5.20;;;4.80;;
68921;SDS011;55959;51.244;5.724;2023-05-07T01:01:43;5.63;;;5.13;;
68921;SDS011;55959;51.244;5.724;2023-05-07T01:04:09;5.87;;;5.37;;
68921;SDS011;55959;51.244;5.724;2023-05-07T01:06:35;5.20;;;4.80;;
68921;SDS011;55959;51.244;5.724;2023-05-07T01:09:00;5.67;;;5.27;;
68921;SDS011;55959;51.244;5.724;2023-05-07T01:11:28;6.33;;;5.80;;
68921;SDS011;55959;51.244;5.724;2023-05-07T01:13:53;5.37;;;4.87;;
68921;SDS011;55959;51.244;5.724;2023-05-07T01:16:19;5.70;;;5.30;;
68921;SDS011;55959;51.244;5.724;2023-05-07T01:18:45;5.90;;;5.40;;
68921;SDS011;55959;51.244;5.724;2023-05-07T01:21:13;5.93;;;5.43;;
68921;SDS011;55959;51.244;5.724;2023-05-07T01:23:42;6.67;;;6.17;;
68921;SDS011;55959;51.244;5.724;2023-05-07T01:26:10;6.30;;;5.80;;
68921;SDS011;55959;51.244;5.724;2023-05-07T01:28:36;6.60;;;6.00;;
68921;SDS011;55959;51.244;5.724;2023-05-07T01:31:02;7.30;;;6.70;;
68921;SDS011;55959;51.244;5.724;2023-05-07T01:33:29;7.67;;;7.00;;
68921;SDS011;55959;51.244;5.724;2023-05-07T01:35:59;6.93;;;6.27;;
68921;SDS011;55959;51.244;5.724;2023-05-07T01:38:28;6.20;;;5.60;;
68921;SDS011;55959;51.244;5.724;2023-05-07T01:40:55;6.83;;;5.40;;
68921;SDS011;55959;51.244;5.724;2023-05-07T01:43:22;6.93;;;6.30;;
68921;SDS011;55959;51.244;5.724;2023-05-07T01:45:48;6.93;;;6.33;;
68921;SDS011;55959;51.244;5.724;2023-05-07T01:48:14;6.20;;;5.60;;
68921;SDS011;55959;51.244;5.724;2023-05-07T01:50:41;7.03;;;6.30;;
68921;SDS011;55959;51.244;5.724;2023-05-07T01:53:08;7.30;;;6.60;;
68921;SDS011;55959;51.244;5.724;2023-05-07T01:55:34;8.80;;;8.00;;
68921;SDS011;55959;51.244;5.724;2023-05-07T01:58:01;7.50;;;6.90;;
68921;SDS011;55959;51.244;5.724;2023-05-07T02:00:28;7.47;;;6.77;;
68921;SDS011;55959;51.244;5.724;2023-05-07T02:02:54;7.37;;;6.67;;
68921;SDS011;55959;51.244;5.724;2023-05-07T02:05:19;7.37;;;6.60;;
68921;SDS011;55959;51.244;5.724;2023-05-07T02:07:45;8.87;;;8.07;;
68921;SDS011;55959;51.244;5.724;2023-05-07T02:10:11;8.07;;;7.30;;
68921;SDS011;55959;51.244;5.724;2023-05-07T02:12:37;8.10;;;7.40;;
68921;SDS011;55959;51.244;5.724;2023-05-07T02:15:02;7.43;;;6.83;;
68921;SDS011;55959;51.244;5.724;2023-05-07T02:17:28;7.57;;;6.97;;
68921;SDS011;55959;51.244;5.724;2023-05-07T02:19:56;8.37;;;7.57;;
68921;SDS011;55959;51.244;5.724;2023-05-07T02:22:22;7.93;;;7.33;;
68921;SDS011;55959;51.244;5.724;2023-05-07T02:24:48;7.33;;;6.70;;
68921;SDS011;55959;51.244;5.724;2023-05-07T02:27:14;7.20;;;6.53;;
68921;SDS011;55959;51.244;5.724;2023-05-07T02:29:40;7.03;;;6.43;;
68921;SDS011;55959;51.244;5.724;2023-05-07T02:32:05;7.23;;;6.63;;
68921;SDS011;55959;51.244;5.724;2023-05-07T02:34:31;7.97;;;7.03;;
68921;SDS011;55959;51.244;5.724;2023-05-07T02:36:57;7.53;;;6.80;;
68921;SDS011;55959;51.244;5.724;2023-05-07T02:39:23;6.67;;;6.17;;
68921;SDS011;55959;51.244;5.724;2023-05-07T02:41:48;8.27;;;7.47;;
68921;SDS011;55959;51.244;5.724;2023-05-07T02:44:14;7.90;;;7.20;;
68921;SDS011;55959;51.244;5.724;2023-05-07T02:46:40;7.50;;;6.80;;
68921;SDS011;55959;51.244;5.724;2023-05-07T02:49:06;8.17;;;7.37;;
68921;SDS011;55959;51.244;5.724;2023-05-07T02:51:31;7.40;;;6.80;;
68921;SDS011;55959;51.244;5.724;2023-05-07T02:53:57;9.53;;;8.63;;
68921;SDS011;55959;51.244;5.724;2023-05-07T02:56:25;8.50;;;7.80;;
68921;SDS011;55959;51.244;5.724;2023-05-07T02:58:51;10.23;;;9.23;;
68921;SDS011;55959;51.244;5.724;2023-05-07T03:01:17;8.50;;;7.80;;
68921;SDS011;55959;51.244;5.724;2023-05-07T03:03:42;8.47;;;7.77;;
68921;SDS011;55959;51.244;5.724;2023-05-07T03:06:09;9.03;;;8.23;;
68921;SDS011;55959;51.244;5.724;2023-05-07T03:08:35;8.67;;;7.93;;
68921;SDS011;55959;51.244;5.724;2023-05-07T03:11:01;8.90;;;8.13;;
68921;SDS011;55959;51.244;5.724;2023-05-07T03:13:27;9.53;;;8.70;;
68921;SDS011;55959;51.244;5.724;2023-05-07T03:15:53;8.80;;;8.10;;
68921;SDS011;55959;51.244;5.724;2023-05-07T03:18:19;9.40;;;8.50;;
68921;SDS011;55959;51.244;5.724;2023-05-07T03:20:44;7.83;;;7.23;;
68921;SDS011;55959;51.244;5.724;2023-05-07T03:23:11;7.97;;;7.13;;
68921;SDS011;55959;51.244;5.724;2023-05-07T03:25:36;9.67;;;8.87;;
68921;SDS011;55959;51.244;5.724;2023-05-07T03:28:02;8.87;;;8.07;;
68921;SDS011;55959;51.244;5.724;2023-05-07T03:30:28;8.77;;;8.07;;
68921;SDS011;55959;51.244;5.724;2023-05-07T03:32:54;9.20;;;8.40;;
68921;SDS011;55959;51.244;5.724;2023-05-07T03:35:19;8.70;;;7.90;;
68921;SDS011;55959;51.244;5.724;2023-05-07T03:37:45;9.07;;;8.27;;
68921;SDS011;55959;51.244;5.724;2023-05-07T03:40:12;9.47;;;8.57;;
68921;SDS011;55959;51.244;5.724;2023-05-07T03:42:37;10.43;;;9.47;;
68921;SDS011;55959;51.244;5.724;2023-05-07T03:45:03;9.57;;;8.77;;
68921;SDS011;55959;51.244;5.724;2023-05-07T03:47:31;9.13;;;8.33;;
68921;SDS011;55959;51.244;5.724;2023-05-07T03:49:56;9.50;;;8.60;;
68921;SDS011;55959;51.244;5.724;2023-05-07T03:52:22;10.23;;;9.33;;
68921;SDS011;55959;51.244;5.724;2023-05-07T03:54:52;11.40;;;10.40;;
68921;SDS011;55959;51.244;5.724;2023-05-07T03:57:18;9.50;;;8.70;;
68921;SDS011;55959;51.244;5.724;2023-05-07T03:59:45;10.07;;;9.23;;
68921;SDS011;55959;51.244;5.724;2023-05-07T04:02:10;10.20;;;9.30;;
68921;SDS011;55959;51.244;5.724;2023-05-07T04:04:36;9.93;;;9.03;;
68921;SDS011;55959;51.244;5.724;2023-05-07T04:07:02;10.50;;;9.47;;
68921;SDS011;55959;51.244;5.724;2023-05-07T04:09:28;11.10;;;9.73;;
68921;SDS011;55959;51.244;5.724;2023-05-07T04:11:53;11.03;;;10.10;;
68921;SDS011;55959;51.244;5.724;2023-05-07T04:14:20;10.57;;;9.60;;
68921;SDS011;55959;51.244;5.724;2023-05-07T04:16:46;10.20;;;9.20;;
68921;SDS011;55959;51.244;5.724;2023-05-07T04:19:11;11.77;;;10.77;;
68921;SDS011;55959;51.244;5.724;2023-05-07T04:21:37;11.23;;;10.23;;
68921;SDS011;55959;51.244;5.724;2023-05-07T04:24:03;9.63;;;8.73;;
68921;SDS011;55959;51.244;5.724;2023-05-07T04:26:29;10.77;;;9.77;;
68921;SDS011;55959;51.244;5.724;2023-05-07T04:28:56;10.53;;;9.63;;
68921;SDS011;55959;51.244;5.724;2023-05-07T04:31:24;10.30;;;9.33;;
68921;SDS011;55959;51.244;5.724;2023-05-07T04:33:49;10.50;;;9.50;;
68921;SDS011;55959;51.244;5.724;2023-05-07T04:36:16;11.40;;;10.40;;
68921;SDS011;55959;51.244;5.724;2023-05-07T04:38:42;10.63;;;9.73;;
68921;SDS011;55959;51.244;5.724;2023-05-07T04:41:08;11.73;;;10.53;;
68921;SDS011;55959;51.244;5.724;2023-05-07T04:43:34;10.00;;;9.10;;
68921;SDS011;55959;51.244;5.724;2023-05-07T04:46:00;10.03;;;9.13;;
68921;SDS011;55959;51.244;5.724;2023-05-07T04:48:26;10.07;;;9.20;;
68921;SDS011;55959;51.244;5.724;2023-05-07T04:50:52;10.57;;;9.67;;
68921;SDS011;55959;51.244;5.724;2023-05-07T04:53:18;10.73;;;9.83;;
68921;SDS011;55959;51.244;5.724;2023-05-07T04:55:45;9.70;;;8.87;;
68921;SDS011;55959;51.244;5.724;2023-05-07T04:58:11;10.37;;;9.47;;
68921;SDS011;55959;51.244;5.724;2023-05-07T05:00:37;10.27;;;9.27;;
68921;SDS011;55959;51.244;5.724;2023-05-07T05:03:07;12.13;;;10.97;;
68921;SDS011;55959;51.244;5.724;2023-05-07T05:05:33;12.27;;;11.17;;
68921;SDS011;55959;51.244;5.724;2023-05-07T05:07:59;12.50;;;11.30;;
68921;SDS011;55959;51.244;5.724;2023-05-07T05:10:24;11.57;;;10.57;;
68921;SDS011;55959;51.244;5.724;2023-05-07T05:12:50;11.23;;;10.27;;
68921;SDS011;55959;51.244;5.724;2023-05-07T05:15:19;10.90;;;9.93;;
68921;SDS011;55959;51.244;5.724;2023-05-07T05:17:45;10.83;;;9.83;;
68921;SDS011;55959;51.244;5.724;2023-05-07T05:20:11;10.30;;;9.37;;
68921;SDS011;55959;51.244;5.724;2023-05-07T05:22:37;10.17;;;9.37;;
68921;SDS011;55959;51.244;5.724;2023-05-07T05:25:03;13.13;;;11.93;;
68921;SDS011;55959;51.244;5.724;2023-05-07T05:27:29;10.87;;;9.83;;
68921;SDS011;55959;51.244;5.724;2023-05-07T05:29:55;12.57;;;11.40;;
68921;SDS011;55959;51.244;5.724;2023-05-07T05:32:21;10.93;;;9.90;;
68921;SDS011;55959;51.244;5.724;2023-05-07T05:34:47;11.93;;;10.73;;
68921;SDS011;55959;51.244;5.724;2023-05-07T05:37:13;10.27;;;9.40;;
68921;SDS011;55959;51.244;5.724;2023-05-07T05:39:38;11.33;;;10.30;;
68921;SDS011;55959;51.244;5.724;2023-05-07T05:42:04;10.70;;;9.70;;
68921;SDS011;55959;51.244;5.724;2023-05-07T05:44:30;12.00;;;10.80;;
68921;SDS011;55959;51.244;5.724;2023-05-07T05:46:56;12.83;;;11.60;;
68921;SDS011;55959;51.244;5.724;2023-05-07T05:49:24;10.80;;;9.87;;
68921;SDS011;55959;51.244;5.724;2023-05-07T05:51:50;12.17;;;11.07;;
68921;SDS011;55959;51.244;5.724;2023-05-07T05:54:15;10.50;;;9.50;;
68921;SDS011;55959;51.244;5.724;2023-05-07T05:56:41;10.43;;;9.53;;
68921;SDS011;55959;51.244;5.724;2023-05-07T05:59:07;9.37;;;8.50;;
68921;SDS011;55959;51.244;5.724;2023-05-07T06:01:34;9.97;;;9.07;;
68921;SDS011;55959;51.244;5.724;2023-05-07T06:04:00;9.90;;;8.90;;
68921;SDS011;55959;51.244;5.724;2023-05-07T06:06:26;9.73;;;8.70;;
68921;SDS011;55959;51.244;5.724;2023-05-07T06:08:52;10.97;;;9.97;;
68921;SDS011;55959;51.244;5.724;2023-05-07T06:11:18;11.07;;;10.07;;
68921;SDS011;55959;51.244;5.724;2023-05-07T06:13:43;10.07;;;9.17;;
68921;SDS011;55959;51.244;5.724;2023-05-07T06:16:09;10.63;;;9.53;;
68921;SDS011;55959;51.244;5.724;2023-05-07T06:18:35;9.67;;;8.87;;
68921;SDS011;55959;51.244;5.724;2023-05-07T06:21:01;9.67;;;8.77;;
68921;SDS011;55959;51.244;5.724;2023-05-07T06:23:27;10.18;;;9.15;;
68921;SDS011;55959;51.244;5.724;2023-05-07T06:25:53;10.15;;;9.23;;
68921;SDS011;55959;51.244;5.724;2023-05-07T06:28:18;8.48;;;7.78;;
68921;SDS011;55959;51.244;5.724;2023-05-07T06:30:44;9.48;;;8.63;;
68921;SDS011;55959;51.244;5.724;2023-05-07T06:33:10;9.25;;;8.45;;
68921;SDS011;55959;51.244;5.724;2023-05-07T06:35:35;10.35;;;9.32;;
68921;SDS011;55959;51.244;5.724;2023-05-07T06:38:01;9.80;;;8.77;;
68921;SDS011;55959;51.244;5.724;2023-05-07T06:40:27;8.33;;;7.57;;
68921;SDS011;55959;51.244;5.724;2023-05-07T06:42:53;9.93;;;9.02;;
68921;SDS011;55959;51.244;5.724;2023-05-07T06:45:19;9.45;;;8.55;;
68921;SDS011;55959;51.244;5.724;2023-05-07T06:47:45;9.77;;;8.82;;
68921;SDS011;55959;51.244;5.724;2023-05-07T06:50:11;8.77;;;7.97;;
68921;SDS011;55959;51.244;5.724;2023-05-07T06:52:37;10.13;;;8.80;;
68921;SDS011;55959;51.244;5.724;2023-05-07T06:55:02;11.20;;;8.73;;
68921;SDS011;55959;51.244;5.724;2023-05-07T06:57:29;9.30;;;8.50;;
68921;SDS011;55959;51.244;5.724;2023-05-07T06:59:55;8.10;;;7.40;;
68921;SDS011;55959;51.244;5.724;2023-05-07T07:02:20;9.15;;;8.27;;
68921;SDS011;55959;51.244;5.724;2023-05-07T07:04:46;8.68;;;7.63;;
68921;SDS011;55959;51.244;5.724;2023-05-07T07:07:12;9.30;;;8.40;;
68921;SDS011;55959;51.244;5.724;2023-05-07T07:09:38;11.13;;;9.23;;
68921;SDS011;55959;51.244;5.724;2023-05-07T07:12:03;7.65;;;6.95;;
68921;SDS011;55959;51.244;5.724;2023-05-07T07:14:29;9.25;;;7.32;;
68921;SDS011;55959;51.244;5.724;2023-05-07T07:16:55;8.85;;;8.02;;
68921;SDS011;55959;51.244;5.724;2023-05-07T07:19:20;8.53;;;7.73;;
68921;SDS011;55959;51.244;5.724;2023-05-07T07:21:46;7.40;;;6.80;;
68921;SDS011;55959;51.244;5.724;2023-05-07T07:24:12;8.65;;;7.72;;
68921;SDS011;55959;51.244;5.724;2023-05-07T07:26:43;7.63;;;6.93;;
68921;SDS011;55959;51.244;5.724;2023-05-07T07:29:10;7.70;;;7.07;;
68921;SDS011;55959;51.244;5.724;2023-05-07T07:31:35;7.95;;;7.25;;
68921;SDS011;55959;51.244;5.724;2023-05-07T07:34:01;7.78;;;7.07;;
68921;SDS011;55959;51.244;5.724;2023-05-07T07:36:27;7.80;;;7.13;;
68921;SDS011;55959;51.244;5.724;2023-05-07T07:38:53;7.68;;;6.97;;
68921;SDS011;55959;51.244;5.724;2023-05-07T07:41:19;8.15;;;7.45;;
68921;SDS011;55959;51.244;5.724;2023-05-07T07:43:45;8.45;;;7.57;;
68921;SDS011;55959;51.244;5.724;2023-05-07T07:46:11;7.15;;;6.45;;
68921;SDS011;55959;51.244;5.724;2023-05-07T07:48:37;7.82;;;6.78;;
68921;SDS011;55959;51.244;5.724;2023-05-07T07:51:04;6.90;;;6.28;;
68921;SDS011;55959;51.244;5.724;2023-05-07T07:53:30;7.18;;;6.05;;
68921;SDS011;55959;51.244;5.724;2023-05-07T07:55:56;7.40;;;6.40;;
68921;SDS011;55959;51.244;5.724;2023-05-07T07:58:21;7.78;;;7.07;;
68921;SDS011;55959;51.244;5.724;2023-05-07T08:00:48;6.65;;;5.95;;
68921;SDS011;55959;51.244;5.724;2023-05-07T08:03:14;7.40;;;5.22;;
68921;SDS011;55959;51.244;5.724;2023-05-07T08:05:41;6.03;;;5.43;;
68921;SDS011;55959;51.244;5.724;2023-05-07T08:08:07;6.25;;;5.65;;
68921;SDS011;55959;51.244;5.724;2023-05-07T08:10:35;6.72;;;6.03;;
68921;SDS011;55959;51.244;5.724;2023-05-07T08:13:03;7.00;;;6.32;;
68921;SDS011;55959;51.244;5.724;2023-05-07T08:15:29;7.03;;;6.30;;
68921;SDS011;55959;51.244;5.724;2023-05-07T08:17:55;8.10;;;6.38;;
68921;SDS011;55959;51.244;5.724;2023-05-07T08:20:22;6.90;;;5.82;;
68921;SDS011;55959;51.244;5.724;2023-05-07T08:22:48;5.88;;;5.32;;
68921;SDS011;55959;51.244;5.724;2023-05-07T08:25:14;7.35;;;6.30;;
68921;SDS011;55959;51.244;5.724;2023-05-07T08:27:40;6.97;;;6.28;;
68921;SDS011;55959;51.244;5.724;2023-05-07T08:30:06;6.70;;;6.00;;
68921;SDS011;55959;51.244;5.724;2023-05-07T08:32:32;8.73;;;6.65;;
68921;SDS011;55959;51.244;5.724;2023-05-07T08:34:58;6.70;;;6.10;;
68921;SDS011;55959;51.244;5.724;2023-05-07T08:37:24;6.25;;;5.60;;
68921;SDS011;55959;51.244;5.724;2023-05-07T08:39:50;7.30;;;5.93;;
68921;SDS011;55959;51.244;5.724;2023-05-07T08:42:16;5.45;;;4.88;;
68921;SDS011;55959;51.244;5.724;2023-05-07T08:44:43;5.47;;;4.60;;
68921;SDS011;55959;51.244;5.724;2023-05-07T08:47:12;7.97;;;5.53;;
68921;SDS011;55959;51.244;5.724;2023-05-07T08:49:37;6.45;;;5.10;;
68921;SDS011;55959;51.244;5.724;2023-05-07T08:52:03;6.57;;;5.90;;
68921;SDS011;55959;51.244;5.724;2023-05-07T08:54:29;6.93;;;5.85;;
68921;SDS011;55959;51.244;5.724;2023-05-07T08:56:56;7.00;;;5.97;;
68921;SDS011;55959;51.244;5.724;2023-05-07T08:59:22;7.05;;;5.05;;
68921;SDS011;55959;51.244;5.724;2023-05-07T09:01:48;5.88;;;5.38;;
68921;SDS011;55959;51.244;5.724;2023-05-07T09:04:13;7.55;;;6.03;;
68921;SDS011;55959;51.244;5.724;2023-05-07T09:06:39;7.93;;;6.50;;
68921;SDS011;55959;51.244;5.724;2023-05-07T09:09:07;6.88;;;6.13;;
68921;SDS011;55959;51.244;5.724;2023-05-07T09:11:32;7.13;;;6.43;;
68921;SDS011;55959;51.244;5.724;2023-05-07T09:13:58;8.15;;;6.15;;
68921;SDS011;55959;51.244;5.724;2023-05-07T09:16:26;8.18;;;7.38;;
68921;SDS011;55959;51.244;5.724;2023-05-07T09:18:56;7.85;;;6.60;;
68921;SDS011;55959;51.244;5.724;2023-05-07T09:21:25;6.60;;;5.90;;
68921;SDS011;55959;51.244;5.724;2023-05-07T09:23:51;6.57;;;5.82;;
68921;SDS011;55959;51.244;5.724;2023-05-07T09:26:21;5.75;;;5.20;;
68921;SDS011;55959;51.244;5.724;2023-05-07T09:28:47;6.93;;;5.43;;
68921;SDS011;55959;51.244;5.724;2023-05-07T09:31:13;5.13;;;4.63;;
68921;SDS011;55959;51.244;5.724;2023-05-07T09:33:39;6.32;;;5.70;;
68921;SDS011;55959;51.244;5.724;2023-05-07T09:36:06;6.35;;;5.53;;
68921;SDS011;55959;51.244;5.724;2023-05-07T09:38:34;6.22;;;5.20;;
68921;SDS011;55959;51.244;5.724;2023-05-07T09:41:02;7.75;;;5.90;;
68921;SDS011;55959;51.244;5.724;2023-05-07T09:43:33;6.85;;;5.22;;
68921;SDS011;55959;51.244;5.724;2023-05-07T09:46:13;6.55;;;5.95;;
68921;SDS011;55959;51.244;5.724;2023-05-07T09:48:41;5.20;;;4.70;;
68921;SDS011;55959;51.244;5.724;2023-05-07T09:53:52;5.07;;;4.57;;
68921;SDS011;55959;51.244;5.724;2023-05-07T09:56:18;4.32;;;3.92;;
68921;SDS011;55959;51.244;5.724;2023-05-07T09:58:45;4.88;;;4.38;;
68921;SDS011;55959;51.244;5.724;2023-05-07T10:01:12;5.63;;;4.55;;
68921;SDS011;55959;51.244;5.724;2023-05-07T10:03:39;4.53;;;4.13;;
68921;SDS011;55959;51.244;5.724;2023-05-07T10:06:08;5.53;;;4.93;;
68921;SDS011;55959;51.244;5.724;2023-05-07T10:08:35;4.90;;;4.50;;
68921;SDS011;55959;51.244;5.724;2023-05-07T10:11:03;4.50;;;4.10;;
68921;SDS011;55959;51.244;5.724;2023-05-07T10:13:30;4.70;;;4.20;;
68921;SDS011;55959;51.244;5.724;2023-05-07T10:15:56;5.05;;;4.55;;
68921;SDS011;55959;51.244;5.724;2023-05-07T10:18:22;5.38;;;4.60;;
68921;SDS011;55959;51.244;5.724;2023-05-07T10:20:54;6.00;;;4.60;;
68921;SDS011;55959;51.244;5.724;2023-05-07T10:23:23;6.18;;;5.57;;
68921;SDS011;55959;51.244;5.724;2023-05-07T10:25:49;6.00;;;5.07;;
68921;SDS011;55959;51.244;5.724;2023-05-07T10:28:15;5.32;;;4.45;;
68921;SDS011;55959;51.244;5.724;2023-05-07T10:31:01;4.65;;;4.00;;
68921;SDS011;55959;51.244;5.724;2023-05-07T10:33:54;5.25;;;3.78;;
68921;SDS011;55959;51.244;5.724;2023-05-07T10:36:21;6.80;;;4.47;;
68921;SDS011;55959;51.244;5.724;2023-05-07T10:38:48;4.63;;;4.13;;
68921;SDS011;55959;51.244;5.724;2023-05-07T10:41:15;5.28;;;4.43;;
68921;SDS011;55959;51.244;5.724;2023-05-07T10:43:42;4.50;;;4.10;;
68921;SDS011;55959;51.244;5.724;2023-05-07T10:46:17;4.13;;;3.58;;
68921;SDS011;55959;51.244;5.724;2023-05-07T10:51:25;4.88;;;4.18;;
68921;SDS011;55959;51.244;5.724;2023-05-07T10:56:36;4.43;;;3.25;;
68921;SDS011;55959;51.244;5.724;2023-05-07T11:01:56;4.25;;;3.30;;
68921;SDS011;55959;51.244;5.724;2023-05-07T11:04:28;3.60;;;3.13;;
68921;SDS011;55959;51.244;5.724;2023-05-07T11:15:07;3.83;;;3.10;;
68921;SDS011;55959;51.244;5.724;2023-05-07T11:17:53;3.47;;;2.85;;
68921;SDS011;55959;51.244;5.724;2023-05-07T11:20:21;3.83;;;3.40;;
68921;SDS011;55959;51.244;5.724;2023-05-07T11:26:07;5.68;;;3.22;;
68921;SDS011;55959;51.244;5.724;2023-05-07T11:28:37;4.80;;;3.03;;
68921;SDS011;55959;51.244;5.724;2023-05-07T11:31:05;3.53;;;2.50;;
68921;SDS011;55959;51.244;5.724;2023-05-07T11:33:31;2.88;;;2.45;;
68921;SDS011;55959;51.244;5.724;2023-05-07T11:35:59;4.38;;;2.42;;
68921;SDS011;55959;51.244;5.724;2023-05-07T11:38:27;2.55;;;2.35;;
68921;SDS011;55959;51.244;5.724;2023-05-07T11:40:56;3.55;;;2.35;;
68921;SDS011;55959;51.244;5.724;2023-05-07T11:43:25;2.53;;;2.33;;
68921;SDS011;55959;51.244;5.724;2023-05-07T11:45:52;3.35;;;2.15;;
68921;SDS011;55959;51.244;5.724;2023-05-07T11:48:18;2.47;;;1.55;;
68921;SDS011;55959;51.244;5.724;2023-05-07T11:53:27;2.15;;;1.70;;
68921;SDS011;55959;51.244;5.724;2023-05-07T11:56:01;3.13;;;2.10;;
68921;SDS011;55959;51.244;5.724;2023-05-07T11:58:35;4.88;;;2.38;;
68921;SDS011;55959;51.244;5.724;2023-05-07T12:01:01;2.35;;;1.90;;
68921;SDS011;55959;51.244;5.724;2023-05-07T12:03:27;5.40;;;1.70;;
68921;SDS011;55959;51.244;5.724;2023-05-07T12:05:53;2.95;;;2.10;;
68921;SDS011;55959;51.244;5.724;2023-05-07T12:08:19;3.40;;;1.85;;
68921;SDS011;55959;51.244;5.724;2023-05-07T12:10:48;2.95;;;1.70;;
68921;SDS011;55959;51.244;5.724;2023-05-07T12:15:42;2.58;;;1.77;;
68921;SDS011;55959;51.244;5.724;2023-05-07T12:18:08;4.65;;;2.10;;
68921;SDS011;55959;51.244;5.724;2023-05-07T12:20:36;3.38;;;2.15;;
68921;SDS011;55959;51.244;5.724;2023-05-07T12:23:02;3.35;;;2.45;;
68921;SDS011;55959;51.244;5.724;2023-05-07T12:25:35;5.65;;;3.05;;
68921;SDS011;55959;51.244;5.724;2023-05-07T12:28:02;4.70;;;2.95;;
68921;SDS011;55959;51.244;5.724;2023-05-07T12:30:40;5.65;;;3.13;;
68921;SDS011;55959;51.244;5.724;2023-05-07T12:33:07;4.57;;;2.67;;
68921;SDS011;55959;51.244;5.724;2023-05-07T12:35:37;4.22;;;3.20;;
68921;SDS011;55959;51.244;5.724;2023-05-07T12:38:09;4.75;;;3.65;;
68921;SDS011;55959;51.244;5.724;2023-05-07T12:40:38;4.03;;;3.55;;
68921;SDS011;55959;51.244;5.724;2023-05-07T12:43:18;5.68;;;3.53;;
68921;SDS011;55959;51.244;5.724;2023-05-07T12:45:47;3.33;;;2.40;;
68921;SDS011;55959;51.244;5.724;2023-05-07T12:48:15;5.57;;;2.60;;
68921;SDS011;55959;51.244;5.724;2023-05-07T12:50:41;3.95;;;3.13;;
68921;SDS011;55959;51.244;5.724;2023-05-07T12:53:08;3.60;;;2.80;;
68921;SDS011;55959;51.244;5.724;2023-05-07T12:55:49;3.47;;;2.15;;
68921;SDS011;55959;51.244;5.724;2023-05-07T12:58:27;4.05;;;2.25;;
68921;SDS011;55959;51.244;5.724;2023-05-07T13:00:53;2.22;;;1.92;;
68921;SDS011;55959;51.244;5.724;2023-05-07T13:03:27;2.47;;;1.85;;
68921;SDS011;55959;51.244;5.724;2023-05-07T13:06:06;1.80;;;1.55;;
68921;SDS011;55959;51.244;5.724;2023-05-07T13:08:41;2.92;;;1.60;;
68921;SDS011;55959;51.244;5.724;2023-05-07T13:11:10;1.75;;;1.40;;
68921;SDS011;55959;51.244;5.724;2023-05-07T13:13:37;1.92;;;1.02;;
68921;SDS011;55959;51.244;5.724;2023-05-07T13:16:05;2.38;;;1.10;;
68921;SDS011;55959;51.244;5.724;2023-05-07T13:18:34;1.83;;;1.15;;
68921;SDS011;55959;51.244;5.724;2023-05-07T13:21:00;2.55;;;1.38;;
68921;SDS011;55959;51.244;5.724;2023-05-07T13:23:26;1.92;;;0.90;;
68921;SDS011;55959;51.244;5.724;2023-05-07T13:25:53;1.52;;;1.05;;
68921;SDS011;55959;51.244;5.724;2023-05-07T13:28:20;1.45;;;1.15;;
68921;SDS011;55959;51.244;5.724;2023-05-07T13:30:46;1.63;;;1.20;;
68921;SDS011;55959;51.244;5.724;2023-05-07T13:33:13;1.48;;;1.00;;
68921;SDS011;55959;51.244;5.724;2023-05-07T13:35:40;1.95;;;1.02;;
68921;SDS011;55959;51.244;5.724;2023-05-07T13:38:06;1.73;;;1.23;;
68921;SDS011;55959;51.244;5.724;2023-05-07T13:40:31;2.35;;;0.85;;
68921;SDS011;55959;51.244;5.724;2023-05-07T13:42:57;1.48;;;1.00;;
68921;SDS011;55959;51.244;5.724;2023-05-07T13:45:24;2.42;;;1.10;;
68921;SDS011;55959;51.244;5.724;2023-05-07T13:47:51;1.73;;;1.00;;
68921;SDS011;55959;51.244;5.724;2023-05-07T13:50:17;0.93;;;0.80;;
68921;SDS011;55959;51.244;5.724;2023-05-07T13:52:43;0.80;;;0.70;;
68921;SDS011;55959;51.244;5.724;2023-05-07T13:55:18;1.40;;;1.05;;
68921;SDS011;55959;51.244;5.724;2023-05-07T13:57:54;1.75;;;1.20;;
68921;SDS011;55959;51.244;5.724;2023-05-07T14:00:25;2.72;;;1.50;;
68921;SDS011;55959;51.244;5.724;2023-05-07T14:02:52;2.50;;;1.40;;
68921;SDS011;55959;51.244;5.724;2023-05-07T14:05:18;2.15;;;1.52;;
68921;SDS011;55959;51.244;5.724;2023-05-07T14:07:44;1.77;;;1.17;;
68921;SDS011;55959;51.244;5.724;2023-05-07T14:10:10;1.20;;;1.10;;
68921;SDS011;55959;51.244;5.724;2023-05-07T14:12:36;1.35;;;1.15;;
68921;SDS011;55959;51.244;5.724;2023-05-07T14:15:02;1.75;;;1.20;;
68921;SDS011;55959;51.244;5.724;2023-05-07T14:17:28;1.67;;;1.30;;
68921;SDS011;55959;51.244;5.724;2023-05-07T14:19:55;2.40;;;2.13;;
68921;SDS011;55959;51.244;5.724;2023-05-07T14:22:21;3.60;;;2.25;;
68921;SDS011;55959;51.244;5.724;2023-05-07T14:24:47;3.30;;;3.08;;
68921;SDS011;55959;51.244;5.724;2023-05-07T14:27:14;6.80;;;6.10;;
68921;SDS011;55959;51.244;5.724;2023-05-07T14:29:40;5.22;;;4.72;;
68921;SDS011;55959;51.244;5.724;2023-05-07T14:32:06;5.72;;;5.22;;
68921;SDS011;55959;51.244;5.724;2023-05-07T14:34:32;6.10;;;5.50;;
68921;SDS011;55959;51.244;5.724;2023-05-07T14:36:57;4.60;;;4.20;;
68921;SDS011;55959;51.244;5.724;2023-05-07T14:39:25;5.05;;;4.55;;
68921;SDS011;55959;51.244;5.724;2023-05-07T14:41:51;5.80;;;5.15;;
68921;SDS011;55959;51.244;5.724;2023-05-07T14:44:19;5.93;;;5.32;;
68921;SDS011;55959;51.244;5.724;2023-05-07T14:46:45;5.00;;;4.55;;
68921;SDS011;55959;51.244;5.724;2023-05-07T14:49:11;5.18;;;4.78;;
68921;SDS011;55959;51.244;5.724;2023-05-07T14:51:45;8.07;;;6.18;;
68921;SDS011;55959;51.244;5.724;2023-05-07T14:54:14;6.95;;;5.68;;
68921;SDS011;55959;51.244;5.724;2023-05-07T14:56:41;4.78;;;4.28;;
68921;SDS011;55959;51.244;5.724;2023-05-07T14:59:07;5.78;;;5.25;;
68921;SDS011;55959;51.244;5.724;2023-05-07T15:01:34;4.38;;;3.97;;
68921;SDS011;55959;51.244;5.724;2023-05-07T15:04:01;5.97;;;5.43;;
68921;SDS011;55959;51.244;5.724;2023-05-07T15:06:29;6.13;;;5.53;;
68921;SDS011;55959;51.244;5.724;2023-05-07T15:08:55;5.68;;;5.18;;
68921;SDS011;55959;51.244;5.724;2023-05-07T15:11:20;5.30;;;4.88;;